sensor_id;sensor_type;location;lat;lon;timestamp;P1;P2;P0
81998;PMS5003;71598;46.516;-122.928;2023-08-20T00:00:27;21;20;
81998;PMS5003;71598;46.516;-122.928;2023-08-20T00:02:54;14;14;
81998;PMS5003;71598;46.516;-122.928;2023-08-20T00:05:17;17;17;
81998;PMS5003;71598;46.516;-122.928;2023-08-20T00:07:43;18;16;
81998;PMS5003;71598;46.516;-122.928;2023-08-20T00:10:08;17;16;
81998;PMS5003;71598;46.516;-122.928;2023-08-20T00:12:33;19;18;
81998;PMS5003;71598;46.516;-122.928;2023-08-20T00:14:59;13;13;
81998;PMS5003;71598;46.516;-122.928;2023-08-20T00:17:25;14;13;
81998;PMS5003;71598;46.516;-122.928;2023-08-20T00:19:49;17;16;
81998;PMS5003;71598;46.516;-122.928;2023-08-20T00:22:14;16;16;
81998;PMS5003;71598;46.516;-122.928;2023-08-20T00:24:40;17;17;
81998;PMS5003;71598;46.516;-122.928;2023-08-20T00:27:05;23;20;
81998;PMS5003;71598;46.516;-122.928;2023-08-20T00:29:30;17;16;
81998;PMS5003;71598;46.516;-122.928;2023-08-20T00:31:55;18;18;
81998;PMS5003;71598;46.516;-122.928;2023-08-20T00:34:21;19;17;
81998;PMS5003;71598;46.516;-122.928;2023-08-20T00:36:46;17;16;
81998;PMS5003;71598;46.516;-122.928;2023-08-20T00:39:11;18;18;
81998;PMS5003;71598;46.516;-122.928;2023-08-20T00:41:37;19;18;
81998;PMS5003;71598;46.516;-122.928;2023-08-20T00:44:02;22;19;
81998;PMS5003;71598;46.516;-122.928;2023-08-20T00:46:28;22;21;
81998;PMS5003;71598;46.516;-122.928;2023-08-20T00:48:54;20;20;
81998;PMS5003;71598;46.516;-122.928;2023-08-20T00:51:18;23;23;
81998;PMS5003;71598;46.516;-122.928;2023-08-20T00:53:44;22;22;
81998;PMS5003;71598;46.516;-122.928;2023-08-20T00:56:09;25;25;
81998;PMS5003;71598;46.516;-122.928;2023-08-20T00:58:34;22;22;
81998;PMS5003;71598;46.516;-122.928;2023-08-20T01:00:59;25;24;
81998;PMS5003;71598;46.516;-122.928;2023-08-20T01:03:25;22;22;
81998;PMS5003;71598;46.516;-122.928;2023-08-20T01:05:53;22;21;
81998;PMS5003;71598;46.516;-122.928;2023-08-20T01:08:19;29;29;
81998;PMS5003;71598;46.516;-122.928;2023-08-20T01:10:45;26;25;
81998;PMS5003;71598;46.516;-122.928;2023-08-20T01:13:07;27;27;
81998;PMS5003;71598;46.516;-122.928;2023-08-20T01:15:32;25;23;
81998;PMS5003;71598;46.516;-122.928;2023-08-20T01:17:58;22;22;
81998;PMS5003;71598;46.516;-122.928;2023-08-20T01:20:24;25;23;
81998;PMS5003;71598;46.516;-122.928;2023-08-20T01:22:54;23;23;
81998;PMS5003;71598;46.516;-122.928;2023-08-20T01:25:17;23;23;
81998;PMS5003;71598;46.516;-122.928;2023-08-20T01:27:43;28;27;
81998;PMS5003;71598;46.516;-122.928;2023-08-20T01:30:06;30;30;
81998;PMS5003;71598;46.516;-122.928;2023-08-20T01:32:31;25;25;
81998;PMS5003;71598;46.516;-122.928;2023-08-20T01:34:58;32;31;
81998;PMS5003;71598;46.516;-122.928;2023-08-20T01:37:22;26;25;
81998;PMS5003;71598;46.516;-122.928;2023-08-20T01:39:48;24;23;
81998;PMS5003;71598;46.516;-122.928;2023-08-20T01:42:13;27;26;
81998;PMS5003;71598;46.516;-122.928;2023-08-20T01:44:39;27;25;
81998;PMS5003;71598;46.516;-122.928;2023-08-20T01:47:04;23;23;
81998;PMS5003;71598;46.516;-122.928;2023-08-20T01:49:31;24;24;
81998;PMS5003;71598;46.516;-122.928;2023-08-20T01:51:55;25;24;
81998;PMS5003;71598;46.516;-122.928;2023-08-20T01:54:20;26;26;
81998;PMS5003;71598;46.516;-122.928;2023-08-20T01:56:46;26;26;
81998;PMS5003;71598;46.516;-122.928;2023-08-20T01:59:11;25;25;
81998;PMS5003;71598;46.516;-122.928;2023-08-20T02:01:36;28;26;
81998;PMS5003;71598;46.516;-122.928;2023-08-20T02:04:02;25;22;
81998;PMS5003;71598;46.516;-122.928;2023-08-20T02:06:27;26;26;
81998;PMS5003;71598;46.516;-122.928;2023-08-20T02:08:52;23;23;
81998;PMS5003;71598;46.516;-122.928;2023-08-20T02:11:18;25;25;
81998;PMS5003;71598;46.516;-122.928;2023-08-20T02:13:43;28;28;
81998;PMS5003;71598;46.516;-122.928;2023-08-20T02:16:08;26;25;
81998;PMS5003;71598;46.516;-122.928;2023-08-20T02:18:34;30;29;
81998;PMS5003;71598;46.516;-122.928;2023-08-20T02:20:59;25;24;
81998;PMS5003;71598;46.516;-122.928;2023-08-20T02:23:24;25;24;
81998;PMS5003;71598;46.516;-122.928;2023-08-20T02:25:49;27;27;
81998;PMS5003;71598;46.516;-122.928;2023-08-20T02:28:15;26;26;
81998;PMS5003;71598;46.516;-122.928;2023-08-20T02:30:41;23;23;
81998;PMS5003;71598;46.516;-122.928;2023-08-20T02:33:05;23;23;
81998;PMS5003;71598;46.516;-122.928;2023-08-20T02:35:31;24;24;
81998;PMS5003;71598;46.516;-122.928;2023-08-20T02:37:56;23;22;
81998;PMS5003;71598;46.516;-122.928;2023-08-20T02:40:21;26;25;
81998;PMS5003;71598;46.516;-122.928;2023-08-20T02:42:47;26;25;
81998;PMS5003;71598;46.516;-122.928;2023-08-20T02:45:12;27;27;
81998;PMS5003;71598;46.516;-122.928;2023-08-20T02:47:38;25;25;
81998;PMS5003;71598;46.516;-122.928;2023-08-20T02:50:05;25;25;
81998;PMS5003;71598;46.516;-122.928;2023-08-20T02:52:29;26;25;
81998;PMS5003;71598;46.516;-122.928;2023-08-20T02:54:55;22;22;
81998;PMS5003;71598;46.516;-122.928;2023-08-20T02:57:20;28;27;
81998;PMS5003;71598;46.516;-122.928;2023-08-20T02:59:46;27;27;
81998;PMS5003;71598;46.516;-122.928;2023-08-20T03:02:11;26;26;
81998;PMS5003;71598;46.516;-122.928;2023-08-20T03:04:37;25;25;
81998;PMS5003;71598;46.516;-122.928;2023-08-20T03:07:02;26;26;
81998;PMS5003;71598;46.516;-122.928;2023-08-20T03:09:28;27;27;
81998;PMS5003;71598;46.516;-122.928;2023-08-20T03:11:52;31;30;
81998;PMS5003;71598;46.516;-122.928;2023-08-20T03:14:17;26;26;
81998;PMS5003;71598;46.516;-122.928;2023-08-20T03:16:43;27;26;
81998;PMS5003;71598;46.516;-122.928;2023-08-20T03:19:14;29;28;
81998;PMS5003;71598;46.516;-122.928;2023-08-20T03:21:33;33;30;
81998;PMS5003;71598;46.516;-122.928;2023-08-20T03:23:58;28;27;
81998;PMS5003;71598;46.516;-122.928;2023-08-20T03:26:24;24;23;
81998;PMS5003;71598;46.516;-122.928;2023-08-20T03:28:49;26;26;
81998;PMS5003;71598;46.516;-122.928;2023-08-20T03:31:14;27;27;
81998;PMS5003;71598;46.516;-122.928;2023-08-20T03:33:40;28;27;
81998;PMS5003;71598;46.516;-122.928;2023-08-20T03:36:05;28;27;
81998;PMS5003;71598;46.516;-122.928;2023-08-20T03:38:30;27;26;
81998;PMS5003;71598;46.516;-122.928;2023-08-20T03:40:55;25;25;
81998;PMS5003;71598;46.516;-122.928;2023-08-20T03:43:21;29;29;
81998;PMS5003;71598;46.516;-122.928;2023-08-20T03:45:49;26;25;
81998;PMS5003;71598;46.516;-122.928;2023-08-20T03:48:11;27;26;
81998;PMS5003;71598;46.516;-122.928;2023-08-20T03:50:37;30;29;
81998;PMS5003;71598;46.516;-122.928;2023-08-20T03:53:01;27;27;
81998;PMS5003;71598;46.516;-122.928;2023-08-20T03:55:27;25;23;
81998;PMS5003;71598;46.516;-122.928;2023-08-20T03:57:53;26;26;
81998;PMS5003;71598;46.516;-122.928;2023-08-20T04:00:19;30;29;
81998;PMS5003;71598;46.516;-122.928;2023-08-20T04:02:45;26;25;
81998;PMS5003;71598;46.516;-122.928;2023-08-20T04:05:09;26;26;
81998;PMS5003;71598;46.516;-122.928;2023-08-20T04:07:34;27;27;
81998;PMS5003;71598;46.516;-122.928;2023-08-20T04:09:59;27;27;
81998;PMS5003;71598;46.516;-122.928;2023-08-20T04:12:24;25;25;
81998;PMS5003;71598;46.516;-122.928;2023-08-20T04:14:50;27;26;
81998;PMS5003;71598;46.516;-122.928;2023-08-20T04:17:15;23;23;
81998;PMS5003;71598;46.516;-122.928;2023-08-20T04:19:41;30;30;
81998;PMS5003;71598;46.516;-122.928;2023-08-20T04:22:06;23;22;
81998;PMS5003;71598;46.516;-122.928;2023-08-20T04:24:31;24;23;
81998;PMS5003;71598;46.516;-122.928;2023-08-20T04:26:56;26;26;
81998;PMS5003;71598;46.516;-122.928;2023-08-20T04:29:22;24;24;
81998;PMS5003;71598;46.516;-122.928;2023-08-20T04:31:47;26;25;
81998;PMS5003;71598;46.516;-122.928;2023-08-20T04:34:12;25;24;
81998;PMS5003;71598;46.516;-122.928;2023-08-20T04:36:38;27;26;
81998;PMS5003;71598;46.516;-122.928;2023-08-20T04:39:03;23;23;
81998;PMS5003;71598;46.516;-122.928;2023-08-20T04:41:29;29;29;
81998;PMS5003;71598;46.516;-122.928;2023-08-20T04:43:54;22;22;
81998;PMS5003;71598;46.516;-122.928;2023-08-20T04:46:19;25;25;
81998;PMS5003;71598;46.516;-122.928;2023-08-20T04:48:45;27;27;
81998;PMS5003;71598;46.516;-122.928;2023-08-20T04:51:13;23;23;
81998;PMS5003;71598;46.516;-122.928;2023-08-20T04:53:36;24;24;
81998;PMS5003;71598;46.516;-122.928;2023-08-20T04:56:02;31;30;
81998;PMS5003;71598;46.516;-122.928;2023-08-20T04:58:27;23;23;
81998;PMS5003;71598;46.516;-122.928;2023-08-20T05:00:53;35;35;
81998;PMS5003;71598;46.516;-122.928;2023-08-20T05:03:18;38;38;
81998;PMS5003;71598;46.516;-122.928;2023-08-20T05:05:48;40;40;
81998;PMS5003;71598;46.516;-122.928;2023-08-20T05:08:09;44;44;
81998;PMS5003;71598;46.516;-122.928;2023-08-20T05:10:35;45;44;
81998;PMS5003;71598;46.516;-122.928;2023-08-20T05:13:00;39;39;
81998;PMS5003;71598;46.516;-122.928;2023-08-20T05:15:25;41;39;
81998;PMS5003;71598;46.516;-122.928;2023-08-20T05:17:51;33;33;
81998;PMS5003;71598;46.516;-122.928;2023-08-20T05:20:17;34;34;
81998;PMS5003;71598;46.516;-122.928;2023-08-20T05:22:42;35;35;
81998;PMS5003;71598;46.516;-122.928;2023-08-20T05:25:08;34;34;
81998;PMS5003;71598;46.516;-122.928;2023-08-20T05:27:33;37;36;
81998;PMS5003;71598;46.516;-122.928;2023-08-20T05:29:58;39;37;
81998;PMS5003;71598;46.516;-122.928;2023-08-20T05:32:23;42;41;
81998;PMS5003;71598;46.516;-122.928;2023-08-20T05:34:49;41;37;
81998;PMS5003;71598;46.516;-122.928;2023-08-20T05:37:14;42;40;
81998;PMS5003;71598;46.516;-122.928;2023-08-20T05:39:41;42;41;
81998;PMS5003;71598;46.516;-122.928;2023-08-20T05:42:06;37;37;
81998;PMS5003;71598;46.516;-122.928;2023-08-20T05:44:31;40;40;
81998;PMS5003;71598;46.516;-122.928;2023-08-20T05:46:57;38;38;
81998;PMS5003;71598;46.516;-122.928;2023-08-20T05:49:22;34;33;
81998;PMS5003;71598;46.516;-122.928;2023-08-20T05:51:50;33;33;
81998;PMS5003;71598;46.516;-122.928;2023-08-20T05:54:13;40;38;
81998;PMS5003;71598;46.516;-122.928;2023-08-20T05:56:39;39;38;
81998;PMS5003;71598;46.516;-122.928;2023-08-20T05:59:04;37;36;
81998;PMS5003;71598;46.516;-122.928;2023-08-20T06:01:30;40;39;
81998;PMS5003;71598;46.516;-122.928;2023-08-20T06:03:56;39;38;
81998;PMS5003;71598;46.516;-122.928;2023-08-20T06:06:21;37;37;
81998;PMS5003;71598;46.516;-122.928;2023-08-20T06:08:46;38;37;
81998;PMS5003;71598;46.516;-122.928;2023-08-20T06:11:12;34;33;
81998;PMS5003;71598;46.516;-122.928;2023-08-20T06:13:37;39;39;
81998;PMS5003;71598;46.516;-122.928;2023-08-20T06:16:03;38;38;
81998;PMS5003;71598;46.516;-122.928;2023-08-20T06:18:28;40;39;
81998;PMS5003;71598;46.516;-122.928;2023-08-20T06:20:54;37;36;
81998;PMS5003;71598;46.516;-122.928;2023-08-20T06:23:19;44;41;
81998;PMS5003;71598;46.516;-122.928;2023-08-20T06:25:44;40;39;
81998;PMS5003;71598;46.516;-122.928;2023-08-20T06:28:10;37;36;
81998;PMS5003;71598;46.516;-122.928;2023-08-20T06:30:35;36;36;
81998;PMS5003;71598;46.516;-122.928;2023-08-20T06:33:00;34;34;
81998;PMS5003;71598;46.516;-122.928;2023-08-20T06:35:25;34;34;
81998;PMS5003;71598;46.516;-122.928;2023-08-20T06:37:50;41;39;
81998;PMS5003;71598;46.516;-122.928;2023-08-20T06:40:16;38;37;
81998;PMS5003;71598;46.516;-122.928;2023-08-20T06:42:41;38;37;
81998;PMS5003;71598;46.516;-122.928;2023-08-20T06:45:08;36;36;
81998;PMS5003;71598;46.516;-122.928;2023-08-20T06:47:33;40;39;
81998;PMS5003;71598;46.516;-122.928;2023-08-20T06:49:58;37;36;
81998;PMS5003;71598;46.516;-122.928;2023-08-20T06:52:25;38;38;
81998;PMS5003;71598;46.516;-122.928;2023-08-20T06:54:49;39;39;
81998;PMS5003;71598;46.516;-122.928;2023-08-20T06:57:14;43;40;
81998;PMS5003;71598;46.516;-122.928;2023-08-20T06:59:39;46;45;
81998;PMS5003;71598;46.516;-122.928;2023-08-20T07:02:05;36;36;
81998;PMS5003;71598;46.516;-122.928;2023-08-20T07:04:31;38;38;
81998;PMS5003;71598;46.516;-122.928;2023-08-20T07:06:56;42;41;
81998;PMS5003;71598;46.516;-122.928;2023-08-20T07:09:23;36;36;
81998;PMS5003;71598;46.516;-122.928;2023-08-20T07:11:48;41;39;
81998;PMS5003;71598;46.516;-122.928;2023-08-20T07:14:13;36;36;
81998;PMS5003;71598;46.516;-122.928;2023-08-20T07:16:38;42;41;
81998;PMS5003;71598;46.516;-122.928;2023-08-20T07:19:04;36;36;
81998;PMS5003;71598;46.516;-122.928;2023-08-20T07:21:29;40;38;
81998;PMS5003;71598;46.516;-122.928;2023-08-20T07:23:54;40;40;
81998;PMS5003;71598;46.516;-122.928;2023-08-20T07:26:20;40;39;
81998;PMS5003;71598;46.516;-122.928;2023-08-20T07:28:46;38;37;
81998;PMS5003;71598;46.516;-122.928;2023-08-20T07:31:11;40;39;
81998;PMS5003;71598;46.516;-122.928;2023-08-20T07:33:36;36;36;
81998;PMS5003;71598;46.516;-122.928;2023-08-20T07:36:02;35;35;
81998;PMS5003;71598;46.516;-122.928;2023-08-20T07:38:27;34;34;
81998;PMS5003;71598;46.516;-122.928;2023-08-20T07:40:53;38;36;
81998;PMS5003;71598;46.516;-122.928;2023-08-20T07:43:18;36;36;
81998;PMS5003;71598;46.516;-122.928;2023-08-20T07:45:44;38;37;
81998;PMS5003;71598;46.516;-122.928;2023-08-20T07:48:09;34;34;
81998;PMS5003;71598;46.516;-122.928;2023-08-20T07:50:35;41;40;
81998;PMS5003;71598;46.516;-122.928;2023-08-20T07:53:02;42;40;
81998;PMS5003;71598;46.516;-122.928;2023-08-20T07:55:26;38;37;
81998;PMS5003;71598;46.516;-122.928;2023-08-20T07:57:51;34;34;
81998;PMS5003;71598;46.516;-122.928;2023-08-20T08:00:17;34;34;
81998;PMS5003;71598;46.516;-122.928;2023-08-20T08:02:43;34;31;
81998;PMS5003;71598;46.516;-122.928;2023-08-20T08:05:07;41;39;
81998;PMS5003;71598;46.516;-122.928;2023-08-20T08:07:32;39;39;
81998;PMS5003;71598;46.516;-122.928;2023-08-20T08:09:57;37;37;
81998;PMS5003;71598;46.516;-122.928;2023-08-20T08:12:22;38;37;
81998;PMS5003;71598;46.516;-122.928;2023-08-20T08:14:48;38;38;
81998;PMS5003;71598;46.516;-122.928;2023-08-20T08:17:13;39;38;
81998;PMS5003;71598;46.516;-122.928;2023-08-20T08:19:39;36;36;
81998;PMS5003;71598;46.516;-122.928;2023-08-20T08:22:04;37;37;
81998;PMS5003;71598;46.516;-122.928;2023-08-20T08:24:29;38;37;
81998;PMS5003;71598;46.516;-122.928;2023-08-20T08:26:54;38;37;
81998;PMS5003;71598;46.516;-122.928;2023-08-20T08:29:20;40;39;
81998;PMS5003;71598;46.516;-122.928;2023-08-20T08:31:45;37;37;
81998;PMS5003;71598;46.516;-122.928;2023-08-20T08:34:10;41;40;
81998;PMS5003;71598;46.516;-122.928;2023-08-20T08:36:35;35;35;
81998;PMS5003;71598;46.516;-122.928;2023-08-20T08:39:01;39;37;
81998;PMS5003;71598;46.516;-122.928;2023-08-20T08:41:27;37;36;
81998;PMS5003;71598;46.516;-122.928;2023-08-20T08:43:53;34;34;
81998;PMS5003;71598;46.516;-122.928;2023-08-20T08:46:18;37;36;
81998;PMS5003;71598;46.516;-122.928;2023-08-20T08:48:44;38;35;
81998;PMS5003;71598;46.516;-122.928;2023-08-20T08:51:08;32;31;
81998;PMS5003;71598;46.516;-122.928;2023-08-20T08:53:35;34;34;
81998;PMS5003;71598;46.516;-122.928;2023-08-20T08:55:59;35;34;
81998;PMS5003;71598;46.516;-122.928;2023-08-20T08:58:24;37;35;
81998;PMS5003;71598;46.516;-122.928;2023-08-20T09:00:50;38;38;
81998;PMS5003;71598;46.516;-122.928;2023-08-20T09:03:15;36;35;
81998;PMS5003;71598;46.516;-122.928;2023-08-20T09:05:48;34;33;
81998;PMS5003;71598;46.516;-122.928;2023-08-20T09:08:07;34;34;
81998;PMS5003;71598;46.516;-122.928;2023-08-20T09:10:32;38;37;
81998;PMS5003;71598;46.516;-122.928;2023-08-20T09:12:57;37;36;
81998;PMS5003;71598;46.516;-122.928;2023-08-20T09:15:24;32;32;
81998;PMS5003;71598;46.516;-122.928;2023-08-20T09:17:48;33;33;
81998;PMS5003;71598;46.516;-122.928;2023-08-20T09:20:14;40;38;
81998;PMS5003;71598;46.516;-122.928;2023-08-20T09:22:40;34;33;
81998;PMS5003;71598;46.516;-122.928;2023-08-20T09:25:05;39;39;
81998;PMS5003;71598;46.516;-122.928;2023-08-20T09:27:30;34;33;
81998;PMS5003;71598;46.516;-122.928;2023-08-20T09:29:56;35;34;
81998;PMS5003;71598;46.516;-122.928;2023-08-20T09:32:22;35;34;
81998;PMS5003;71598;46.516;-122.928;2023-08-20T09:34:47;33;33;
81998;PMS5003;71598;46.516;-122.928;2023-08-20T09:37:12;42;40;
81998;PMS5003;71598;46.516;-122.928;2023-08-20T09:39:37;30;30;
81998;PMS5003;71598;46.516;-122.928;2023-08-20T09:42:02;36;34;
81998;PMS5003;71598;46.516;-122.928;2023-08-20T09:44:28;35;33;
81998;PMS5003;71598;46.516;-122.928;2023-08-20T09:46:53;34;33;
81998;PMS5003;71598;46.516;-122.928;2023-08-20T09:49:18;39;37;
81998;PMS5003;71598;46.516;-122.928;2023-08-20T09:51:43;32;32;
81998;PMS5003;71598;46.516;-122.928;2023-08-20T09:54:12;30;29;
81998;PMS5003;71598;46.516;-122.928;2023-08-20T09:56:39;36;35;
81998;PMS5003;71598;46.516;-122.928;2023-08-20T09:58:59;33;33;
81998;PMS5003;71598;46.516;-122.928;2023-08-20T10:01:25;35;35;
81998;PMS5003;71598;46.516;-122.928;2023-08-20T10:03:50;38;37;
81998;PMS5003;71598;46.516;-122.928;2023-08-20T10:06:16;32;31;
81998;PMS5003;71598;46.516;-122.928;2023-08-20T10:08:41;35;35;
81998;PMS5003;71598;46.516;-122.928;2023-08-20T10:11:07;36;36;
81998;PMS5003;71598;46.516;-122.928;2023-08-20T10:13:32;36;36;
81998;PMS5003;71598;46.516;-122.928;2023-08-20T10:15:58;36;36;
81998;PMS5003;71598;46.516;-122.928;2023-08-20T10:18:24;31;31;
81998;PMS5003;71598;46.516;-122.928;2023-08-20T10:20:49;35;34;
81998;PMS5003;71598;46.516;-122.928;2023-08-20T10:23:15;36;34;
81998;PMS5003;71598;46.516;-122.928;2023-08-20T10:25:41;43;42;
81998;PMS5003;71598;46.516;-122.928;2023-08-20T10:28:11;54;52;
81998;PMS5003;71598;46.516;-122.928;2023-08-20T10:30:31;46;46;
81998;PMS5003;71598;46.516;-122.928;2023-08-20T10:32:57;44;44;
81998;PMS5003;71598;46.516;-122.928;2023-08-20T10:35:24;45;43;
81998;PMS5003;71598;46.516;-122.928;2023-08-20T10:38:04;41;39;
81998;PMS5003;71598;46.516;-122.928;2023-08-20T10:40:14;42;40;
81998;PMS5003;71598;46.516;-122.928;2023-08-20T10:42:40;39;39;
81998;PMS5003;71598;46.516;-122.928;2023-08-20T10:45:05;35;35;
81998;PMS5003;71598;46.516;-122.928;2023-08-20T10:47:47;44;42;
81998;PMS5003;71598;46.516;-122.928;2023-08-20T10:49:56;42;41;
81998;PMS5003;71598;46.516;-122.928;2023-08-20T10:52:22;41;40;
81998;PMS5003;71598;46.516;-122.928;2023-08-20T10:54:49;40;39;
81998;PMS5003;71598;46.516;-122.928;2023-08-20T10:57:12;39;39;
81998;PMS5003;71598;46.516;-122.928;2023-08-20T10:59:40;40;40;
81998;PMS5003;71598;46.516;-122.928;2023-08-20T11:02:02;41;41;
81998;PMS5003;71598;46.516;-122.928;2023-08-20T11:04:28;38;37;
81998;PMS5003;71598;46.516;-122.928;2023-08-20T11:06:54;37;36;
81998;PMS5003;71598;46.516;-122.928;2023-08-20T11:09:18;42;41;
81998;PMS5003;71598;46.516;-122.928;2023-08-20T11:11:44;40;39;
81998;PMS5003;71598;46.516;-122.928;2023-08-20T11:14:12;42;41;
81998;PMS5003;71598;46.516;-122.928;2023-08-20T11:16:34;37;37;
81998;PMS5003;71598;46.516;-122.928;2023-08-20T11:19:00;39;38;
81998;PMS5003;71598;46.516;-122.928;2023-08-20T11:21:25;39;39;
81998;PMS5003;71598;46.516;-122.928;2023-08-20T11:23:51;40;40;
81998;PMS5003;71598;46.516;-122.928;2023-08-20T11:26:17;39;38;
81998;PMS5003;71598;46.516;-122.928;2023-08-20T11:28:45;35;34;
81998;PMS5003;71598;46.516;-122.928;2023-08-20T11:31:07;40;38;
81998;PMS5003;71598;46.516;-122.928;2023-08-20T11:33:33;39;39;
81998;PMS5003;71598;46.516;-122.928;2023-08-20T11:35:58;41;39;
81998;PMS5003;71598;46.516;-122.928;2023-08-20T11:38:23;38;36;
81998;PMS5003;71598;46.516;-122.928;2023-08-20T11:40:48;45;42;
81998;PMS5003;71598;46.516;-122.928;2023-08-20T11:43:14;38;38;
81998;PMS5003;71598;46.516;-122.928;2023-08-20T11:45:44;39;36;
81998;PMS5003;71598;46.516;-122.928;2023-08-20T11:48:04;49;48;
81998;PMS5003;71598;46.516;-122.928;2023-08-20T11:50:30;39;37;
81998;PMS5003;71598;46.516;-122.928;2023-08-20T11:52:55;38;37;
81998;PMS5003;71598;46.516;-122.928;2023-08-20T11:55:23;36;35;
81998;PMS5003;71598;46.516;-122.928;2023-08-20T11:57:49;38;36;
81998;PMS5003;71598;46.516;-122.928;2023-08-20T12:00:23;37;36;
81998;PMS5003;71598;46.516;-122.928;2023-08-20T12:02:36;38;37;
81998;PMS5003;71598;46.516;-122.928;2023-08-20T12:05:02;40;39;
81998;PMS5003;71598;46.516;-122.928;2023-08-20T12:07:28;35;35;
81998;PMS5003;71598;46.516;-122.928;2023-08-20T12:09:53;37;36;
81998;PMS5003;71598;46.516;-122.928;2023-08-20T12:12:19;40;38;
81998;PMS5003;71598;46.516;-122.928;2023-08-20T12:14:44;39;38;
81998;PMS5003;71598;46.516;-122.928;2023-08-20T12:17:10;33;33;
81998;PMS5003;71598;46.516;-122.928;2023-08-20T12:19:35;37;36;
81998;PMS5003;71598;46.516;-122.928;2023-08-20T12:22:00;33;32;
81998;PMS5003;71598;46.516;-122.928;2023-08-20T12:24:25;34;34;
81998;PMS5003;71598;46.516;-122.928;2023-08-20T12:26:50;37;36;
81998;PMS5003;71598;46.516;-122.928;2023-08-20T12:29:16;37;36;
81998;PMS5003;71598;46.516;-122.928;2023-08-20T12:31:41;35;35;
81998;PMS5003;71598;46.516;-122.928;2023-08-20T12:34:06;34;34;
81998;PMS5003;71598;46.516;-122.928;2023-08-20T12:36:32;37;37;
81998;PMS5003;71598;46.516;-122.928;2023-08-20T12:38:58;36;35;
81998;PMS5003;71598;46.516;-122.928;2023-08-20T12:41:23;34;32;
81998;PMS5003;71598;46.516;-122.928;2023-08-20T12:43:48;36;36;
81998;PMS5003;71598;46.516;-122.928;2023-08-20T12:46:13;36;36;
81998;PMS5003;71598;46.516;-122.928;2023-08-20T12:48:39;35;33;
81998;PMS5003;71598;46.516;-122.928;2023-08-20T12:51:04;35;34;
81998;PMS5003;71598;46.516;-122.928;2023-08-20T12:53:30;34;33;
81998;PMS5003;71598;46.516;-122.928;2023-08-20T12:55:56;37;35;
81998;PMS5003;71598;46.516;-122.928;2023-08-20T12:58:20;36;34;
81998;PMS5003;71598;46.516;-122.928;2023-08-20T13:00:46;40;38;
81998;PMS5003;71598;46.516;-122.928;2023-08-20T13:03:12;37;37;
81998;PMS5003;71598;46.516;-122.928;2023-08-20T13:05:37;36;34;
81998;PMS5003;71598;46.516;-122.928;2023-08-20T13:08:02;33;32;
81998;PMS5003;71598;46.516;-122.928;2023-08-20T13:10:29;37;36;
81998;PMS5003;71598;46.516;-122.928;2023-08-20T13:12:53;36;35;
81998;PMS5003;71598;46.516;-122.928;2023-08-20T13:15:19;32;31;
81998;PMS5003;71598;46.516;-122.928;2023-08-20T13:17:45;32;32;
81998;PMS5003;71598;46.516;-122.928;2023-08-20T13:20:16;30;29;
81998;PMS5003;71598;46.516;-122.928;2023-08-20T13:22:41;32;32;
81998;PMS5003;71598;46.516;-122.928;2023-08-20T13:25:07;35;33;
81998;PMS5003;71598;46.516;-122.928;2023-08-20T13:27:32;32;32;
81998;PMS5003;71598;46.516;-122.928;2023-08-20T13:29:57;32;30;
81998;PMS5003;71598;46.516;-122.928;2023-08-20T13:32:23;36;36;
81998;PMS5003;71598;46.516;-122.928;2023-08-20T13:34:49;35;34;
81998;PMS5003;71598;46.516;-122.928;2023-08-20T13:37:13;35;34;
81998;PMS5003;71598;46.516;-122.928;2023-08-20T13:39:38;35;35;
81998;PMS5003;71598;46.516;-122.928;2023-08-20T13:42:03;32;31;
81998;PMS5003;71598;46.516;-122.928;2023-08-20T13:44:29;37;35;
81998;PMS5003;71598;46.516;-122.928;2023-08-20T13:46:54;34;33;
81998;PMS5003;71598;46.516;-122.928;2023-08-20T13:49:20;32;32;
81998;PMS5003;71598;46.516;-122.928;2023-08-20T13:51:45;31;31;
81998;PMS5003;71598;46.516;-122.928;2023-08-20T13:54:10;35;35;
81998;PMS5003;71598;46.516;-122.928;2023-08-20T13:56:37;33;33;
81998;PMS5003;71598;46.516;-122.928;2023-08-20T13:59:01;37;37;
81998;PMS5003;71598;46.516;-122.928;2023-08-20T14:01:27;32;30;
81998;PMS5003;71598;46.516;-122.928;2023-08-20T14:03:53;35;34;
81998;PMS5003;71598;46.516;-122.928;2023-08-20T14:06:18;37;36;
81998;PMS5003;71598;46.516;-122.928;2023-08-20T14:08:44;34;34;
81998;PMS5003;71598;46.516;-122.928;2023-08-20T14:11:10;33;33;
81998;PMS5003;71598;46.516;-122.928;2023-08-20T14:13:35;32;31;
81998;PMS5003;71598;46.516;-122.928;2023-08-20T14:16:00;31;31;
81998;PMS5003;71598;46.516;-122.928;2023-08-20T14:18:26;37;36;
81998;PMS5003;71598;46.516;-122.928;2023-08-20T14:20:51;32;31;
81998;PMS5003;71598;46.516;-122.928;2023-08-20T14:23:16;30;30;
81998;PMS5003;71598;46.516;-122.928;2023-08-20T14:25:41;33;32;
81998;PMS5003;71598;46.516;-122.928;2023-08-20T14:28:07;34;33;
81998;PMS5003;71598;46.516;-122.928;2023-08-20T14:30:36;32;32;
81998;PMS5003;71598;46.516;-122.928;2023-08-20T14:32:58;28;28;
81998;PMS5003;71598;46.516;-122.928;2023-08-20T14:35:23;31;31;
81998;PMS5003;71598;46.516;-122.928;2023-08-20T14:37:49;32;32;
81998;PMS5003;71598;46.516;-122.928;2023-08-20T14:40:14;33;33;
81998;PMS5003;71598;46.516;-122.928;2023-08-20T14:42:40;35;34;
81998;PMS5003;71598;46.516;-122.928;2023-08-20T14:45:06;34;32;
81998;PMS5003;71598;46.516;-122.928;2023-08-20T14:47:31;38;38;
81998;PMS5003;71598;46.516;-122.928;2023-08-20T14:49:57;33;31;
81998;PMS5003;71598;46.516;-122.928;2023-08-20T14:52:23;30;30;
81998;PMS5003;71598;46.516;-122.928;2023-08-20T14:54:47;28;27;
81998;PMS5003;71598;46.516;-122.928;2023-08-20T14:57:14;33;32;
81998;PMS5003;71598;46.516;-122.928;2023-08-20T14:59:38;31;30;
81998;PMS5003;71598;46.516;-122.928;2023-08-20T15:02:04;34;32;
81998;PMS5003;71598;46.516;-122.928;2023-08-20T15:04:29;31;30;
81998;PMS5003;71598;46.516;-122.928;2023-08-20T15:06:55;28;28;
81998;PMS5003;71598;46.516;-122.928;2023-08-20T15:09:21;33;31;
81998;PMS5003;71598;46.516;-122.928;2023-08-20T15:11:46;31;28;
81998;PMS5003;71598;46.516;-122.928;2023-08-20T15:14:11;29;29;
81998;PMS5003;71598;46.516;-122.928;2023-08-20T15:16:36;30;29;
81998;PMS5003;71598;46.516;-122.928;2023-08-20T15:19:02;31;30;